createdAt,value
2022-08-25T00:01:37.771Z,17.64
2022-08-25T00:04:07.302Z,17.60
2022-08-25T00:06:33.990Z,17.57
2022-08-25T00:09:00.479Z,17.56
2022-08-25T00:11:30.086Z,17.52
2022-08-25T00:13:59.316Z,17.48
2022-08-25T00:16:26.579Z,17.44
2022-08-25T00:18:58.172Z,17.40
2022-08-25T00:21:25.601Z,17.38
2022-08-25T00:23:52.013Z,17.35
2022-08-25T00:26:18.784Z,17.31
2022-08-25T00:28:45.539Z,17.26
2022-08-25T00:31:18.306Z,17.22
2022-08-25T00:33:46.066Z,17.17
2022-08-25T00:36:12.547Z,17.14
2022-08-25T00:38:40.078Z,17.11
2022-08-25T00:41:07.248Z,17.05
2022-08-25T00:43:38.079Z,17.03
2022-08-25T00:46:04.816Z,17.00
2022-08-25T00:48:31.334Z,16.99
2022-08-25T00:50:57.960Z,16.94
2022-08-25T00:53:24.547Z,16.89
2022-08-25T00:55:51.063Z,16.84
2022-08-25T00:58:21.978Z,16.81
2022-08-25T01:00:49.756Z,16.77
2022-08-25T01:03:18.364Z,16.73
2022-08-25T01:05:45.606Z,16.71
2022-08-25T01:08:13.150Z,16.66
2022-08-25T01:10:44.425Z,16.65
2022-08-25T01:13:18.218Z,16.64
2022-08-25T01:15:46.216Z,16.65
2022-08-25T01:18:12.851Z,16.60
2022-08-25T01:20:39.551Z,16.60
2022-08-25T01:23:06.019Z,16.57
2022-08-25T01:25:51.638Z,16.53
2022-08-25T01:28:18.736Z,16.53
2022-08-25T01:30:45.261Z,16.52
2022-08-25T01:33:12.294Z,16.51
2022-08-25T01:35:39.438Z,16.49
2022-08-25T01:38:07.079Z,16.45
2022-08-25T01:40:34.698Z,16.42
2022-08-25T01:43:07.559Z,16.39
2022-08-25T01:45:35.081Z,16.39
2022-08-25T01:48:01.730Z,16.37
2022-08-25T01:50:28.276Z,16.33
2022-08-25T01:52:58.576Z,16.30
2022-08-25T01:55:25.338Z,16.26
2022-08-25T01:57:52.019Z,16.22
2022-08-25T02:00:19.618Z,16.20
2022-08-25T02:02:46.312Z,16.19
2022-08-25T02:05:23.221Z,16.18
2022-08-25T02:07:50.028Z,16.15
2022-08-25T02:10:16.472Z,16.13
2022-08-25T02:12:42.911Z,16.10
2022-08-25T02:15:09.625Z,16.08
2022-08-25T02:17:36.968Z,16.06
2022-08-25T02:20:08.543Z,16.04
2022-08-25T02:22:34.957Z,16.01
2022-08-25T02:25:01.611Z,16.00
2022-08-25T02:27:28.368Z,15.98
2022-08-25T02:29:54.857Z,15.95
2022-08-25T02:32:21.287Z,15.90
2022-08-25T02:34:48.553Z,15.90
2022-08-25T02:37:15.187Z,15.86
2022-08-25T02:39:41.640Z,15.84
2022-08-25T02:42:08.114Z,15.82
2022-08-25T02:44:34.593Z,15.82
2022-08-25T02:47:01.027Z,15.78
2022-08-25T02:49:27.879Z,15.77
2022-08-25T02:51:54.577Z,15.75
2022-08-25T02:54:21.111Z,15.70
2022-08-25T02:56:48.563Z,15.69
2022-08-25T02:59:15.119Z,15.67
2022-08-25T03:01:41.629Z,15.65
2022-08-25T03:04:08.136Z,15.62
2022-08-25T03:06:34.586Z,15.61
2022-08-25T03:09:01.560Z,15.58
2022-08-25T03:11:28.144Z,15.54
2022-08-25T03:13:54.747Z,15.53
2022-08-25T03:16:21.229Z,15.52
2022-08-25T03:18:48.367Z,15.50
2022-08-25T03:21:15.827Z,15.48
2022-08-25T03:23:43.558Z,15.45
2022-08-25T03:26:28.611Z,15.44
2022-08-25T03:28:55.503Z,15.46
2022-08-25T03:31:22.781Z,15.40
2022-08-25T03:33:49.439Z,15.34
2022-08-25T03:36:15.947Z,15.30
2022-08-25T03:38:42.618Z,15.31
2022-08-25T03:41:16.721Z,15.27
2022-08-25T03:43:43.591Z,15.26
2022-08-25T03:46:16.231Z,15.26
2022-08-25T03:48:43.001Z,15.24
2022-08-25T03:51:09.548Z,15.22
2022-08-25T03:53:36.026Z,15.21
2022-08-25T03:56:02.585Z,15.18
2022-08-25T03:58:29.012Z,15.17
2022-08-25T04:00:56.819Z,15.16
2022-08-25T04:03:23.310Z,15.15
2022-08-25T04:05:49.793Z,15.13
2022-08-25T04:08:16.323Z,15.12
2022-08-25T04:10:45.577Z,15.13
2022-08-25T04:13:12.337Z,15.15
2022-08-25T04:15:42.180Z,15.15
2022-08-25T04:18:08.627Z,15.10
2022-08-25T04:20:35.108Z,15.08
2022-08-25T04:23:01.634Z,15.08
2022-08-25T04:25:28.126Z,15.06
2022-08-25T04:27:55.322Z,15.04
2022-08-25T04:30:22.057Z,15.04
2022-08-25T04:32:48.675Z,15.01
2022-08-25T04:35:15.638Z,14.99
2022-08-25T04:37:42.083Z,14.97
2022-08-25T04:40:09.596Z,14.92
2022-08-25T04:42:36.086Z,14.90
2022-08-25T04:45:04.058Z,14.91
2022-08-25T04:47:31.379Z,14.94
2022-08-25T04:49:57.846Z,14.93
2022-08-25T04:52:24.285Z,14.92
2022-08-25T04:54:50.701Z,14.94
2022-08-25T04:57:17.142Z,14.97
2022-08-25T04:59:43.572Z,14.99
2022-08-25T05:02:10.324Z,14.98
2022-08-25T05:04:37.426Z,15.00
2022-08-25T05:07:04.845Z,15.05
2022-08-25T05:09:32.676Z,15.10
2022-08-25T05:11:59.835Z,15.16
2022-08-25T05:14:26.788Z,15.17
2022-08-25T05:16:53.789Z,15.19
2022-08-25T05:19:20.226Z,15.27
2022-08-25T05:21:47.172Z,15.30
2022-08-25T05:24:13.687Z,15.37
2022-08-25T05:26:40.157Z,15.44
2022-08-25T05:29:07.375Z,15.45
2022-08-25T05:31:36.341Z,15.49
2022-08-25T05:34:05.875Z,15.51
2022-08-25T05:36:33.353Z,15.49
2022-08-25T05:39:00.227Z,15.54
2022-08-25T05:41:28.710Z,15.59
2022-08-25T05:43:55.268Z,15.64
2022-08-25T05:46:22.339Z,15.69
2022-08-25T05:48:49.228Z,15.76
2022-08-25T05:51:16.556Z,15.82
2022-08-25T05:53:44.364Z,15.84
2022-08-25T05:56:11.220Z,15.89
2022-08-25T05:58:37.916Z,15.98
2022-08-25T06:01:23.358Z,16.06
2022-08-25T06:03:53.409Z,16.14
2022-08-25T06:06:20.571Z,16.19
2022-08-25T06:08:47.007Z,16.26
2022-08-25T06:11:14.249Z,16.35
2022-08-25T06:13:40.679Z,16.42
2022-08-25T06:16:07.281Z,16.47
2022-08-25T06:18:33.831Z,16.54
2022-08-25T06:21:07.088Z,16.64
2022-08-25T06:23:33.510Z,16.71
2022-08-25T06:26:00.038Z,16.80
2022-08-25T06:28:26.444Z,16.90
2022-08-25T06:30:57.954Z,17.02
2022-08-25T06:33:24.431Z,17.14
2022-08-25T06:35:53.368Z,17.23
2022-08-25T06:38:19.786Z,17.37
2022-08-25T06:40:47.484Z,17.51
2022-08-25T06:43:13.995Z,17.65
2022-08-25T06:45:40.444Z,17.83
2022-08-25T06:48:06.993Z,18.10
2022-08-25T06:50:33.580Z,18.36
2022-08-25T06:53:00.015Z,18.67
2022-08-25T06:55:26.492Z,18.99
2022-08-25T06:57:54.161Z,19.34
2022-08-25T07:00:22.103Z,19.68
2022-08-25T07:02:57.043Z,20.02
2022-08-25T07:05:33.521Z,20.45
2022-08-25T07:08:07.251Z,20.87
2022-08-25T07:10:33.739Z,21.23
2022-08-25T07:13:01.435Z,21.52
2022-08-25T07:15:27.895Z,21.56
2022-08-25T07:17:54.387Z,21.64
2022-08-25T07:20:20.893Z,21.96
2022-08-25T07:22:48.148Z,22.15
2022-08-25T07:25:14.581Z,22.31
2022-08-25T07:27:44.196Z,22.56
2022-08-25T07:32:57.289Z,22.80
2022-08-25T07:35:26.300Z,23.02
2022-08-25T07:37:58.936Z,23.35
2022-08-25T07:40:27.342Z,23.46
2022-08-25T07:42:55.482Z,23.53
2022-08-25T07:45:29.645Z,23.54
2022-08-25T07:48:06.844Z,23.38
2022-08-25T07:50:33.883Z,23.42
2022-08-25T07:53:00.699Z,23.46
2022-08-25T07:55:28.094Z,23.52
2022-08-25T07:58:02.583Z,23.49
2022-08-25T08:00:30.917Z,23.97
2022-08-25T08:02:57.604Z,24.00
2022-08-25T08:05:24.641Z,23.97
2022-08-25T08:07:51.663Z,24.15
2022-08-25T08:10:53.986Z,24.16
2022-08-25T08:13:07.125Z,24.14
2022-08-25T08:15:34.393Z,24.18
2022-08-25T08:18:00.861Z,24.48
2022-08-25T08:20:27.414Z,24.60
2022-08-25T08:22:55.073Z,24.23
2022-08-25T08:25:27.449Z,24.32
2022-08-25T08:27:55.979Z,24.33
2022-08-25T08:30:25.946Z,24.24
2022-08-25T08:33:09.142Z,24.15
2022-08-25T08:35:36.533Z,24.17
2022-08-25T08:38:03.090Z,24.34
2022-08-25T08:40:31.125Z,24.51
2022-08-25T08:42:58.072Z,24.41
2022-08-25T08:45:40.110Z,24.33
2022-08-25T08:48:19.288Z,24.51
2022-08-25T08:50:54.774Z,24.38
2022-08-25T08:53:24.015Z,24.33
2022-08-25T08:55:58.310Z,24.28
2022-08-25T08:58:28.695Z,24.40
2022-08-25T09:00:58.237Z,24.42
2022-08-25T09:04:03.129Z,24.44
2022-08-25T09:06:33.041Z,24.47
2022-08-25T09:09:02.174Z,24.48
2022-08-25T09:11:28.579Z,24.62
2022-08-25T09:14:10.556Z,24.61
2022-08-25T09:16:57.354Z,24.59
2022-08-25T09:19:42.435Z,24.59
2022-08-25T09:22:35.116Z,24.65
2022-08-25T09:25:08.951Z,24.85
2022-08-25T09:27:41.150Z,24.94
2022-08-25T09:30:10.011Z,24.87
2022-08-25T09:32:42.553Z,25.02
2022-08-25T09:35:19.677Z,25.27
2022-08-25T09:38:15.555Z,25.29
2022-08-25T09:40:44.699Z,25.30
2022-08-25T09:43:32.396Z,25.26
2022-08-25T09:46:02.387Z,25.17
2022-08-25T09:48:40.598Z,25.25
2022-08-25T09:51:19.086Z,25.29
2022-08-25T09:53:51.042Z,25.21
2022-08-25T09:56:19.390Z,25.26
2022-08-25T09:58:45.793Z,25.24
2022-08-25T10:01:17.147Z,25.30
2022-08-25T10:03:54.311Z,25.36
2022-08-25T10:06:21.927Z,25.46
2022-08-25T10:08:48.376Z,25.50
2022-08-25T10:11:29.113Z,25.70
2022-08-25T10:14:21.933Z,25.76
2022-08-25T10:16:49.264Z,25.81
2022-08-25T10:19:22.078Z,25.82
2022-08-25T10:22:02.157Z,25.73
2022-08-25T10:24:29.043Z,25.64
2022-08-25T10:27:04.641Z,25.58
2022-08-25T10:29:49.983Z,25.62
2022-08-25T10:32:36.703Z,25.79
2022-08-25T10:35:09.616Z,25.80
2022-08-25T10:37:50.740Z,25.78
2022-08-25T10:40:38.977Z,25.97
2022-08-25T10:43:07.577Z,25.98
2022-08-25T10:45:44.137Z,26.23
2022-08-25T10:48:19.996Z,26.28
2022-08-25T10:50:52.731Z,26.09
2022-08-25T10:53:34.613Z,26.11
2022-08-25T10:56:12.228Z,26.04
2022-08-25T10:58:41.731Z,26.13
2022-08-25T11:01:17.467Z,26.32
2022-08-25T11:03:50.031Z,26.64
2022-08-25T11:06:23.630Z,26.78
2022-08-25T11:09:04.309Z,26.58
2022-08-25T11:11:36.399Z,26.54
2022-08-25T11:14:09.201Z,26.64
2022-08-25T11:16:39.026Z,26.95
2022-08-25T11:19:09.284Z,27.11
2022-08-25T11:22:14.575Z,27.46
2022-08-25T11:24:57.321Z,27.50
2022-08-25T11:27:28.398Z,27.68
2022-08-25T11:29:59.937Z,27.63
2022-08-25T11:32:27.438Z,27.77
2022-08-25T11:34:54.150Z,27.81
2022-08-25T11:37:25.495Z,28.00
2022-08-25T11:40:01.134Z,27.65
2022-08-25T11:42:27.792Z,28.05
2022-08-25T11:44:54.943Z,28.31
2022-08-25T11:47:21.833Z,28.46
2022-08-25T11:49:54.268Z,28.51
2022-08-25T11:52:32.666Z,28.20
2022-08-25T11:55:17.859Z,28.91
2022-08-25T11:57:53.459Z,29.21
2022-08-25T12:00:39.211Z,29.27
2022-08-25T12:03:25.992Z,29.39
2022-08-25T12:06:12.923Z,28.76
2022-08-25T12:08:51.636Z,29.01
2022-08-25T12:11:36.969Z,28.93
2022-08-25T12:14:14.218Z,29.00
2022-08-25T12:17:00.565Z,28.68
2022-08-25T12:19:30.008Z,28.76
2022-08-25T12:22:03.697Z,28.88
2022-08-25T12:24:48.206Z,29.16
2022-08-25T12:27:20.842Z,29.09
2022-08-25T12:30:07.882Z,29.17
2022-08-25T12:32:41.545Z,29.38
2022-08-25T12:35:26.232Z,29.73
2022-08-25T12:38:05.037Z,29.32
2022-08-25T12:40:43.979Z,29.44
2022-08-25T12:43:11.897Z,29.45
2022-08-25T12:45:44.244Z,29.81
2022-08-25T12:48:27.410Z,29.58
2022-08-25T12:51:08.362Z,29.55
2022-08-25T12:53:37.871Z,29.49
2022-08-25T12:56:24.576Z,29.74
2022-08-25T12:59:03.433Z,30.10
2022-08-25T13:01:48.474Z,30.38
2022-08-25T13:04:16.329Z,30.02
2022-08-25T13:06:43.279Z,30.21
2022-08-25T13:09:24.983Z,30.34
2022-08-25T13:11:56.500Z,29.82
2022-08-25T13:14:29.119Z,30.06
2022-08-25T13:16:56.536Z,30.16
2022-08-25T13:19:23.721Z,30.65
2022-08-25T13:21:50.446Z,30.99
2022-08-25T13:24:40.184Z,30.83
2022-08-25T13:27:09.494Z,31.07
2022-08-25T13:29:48.710Z,31.47
2022-08-25T13:32:17.593Z,31.39
2022-08-25T13:34:44.237Z,31.35
2022-08-25T13:37:31.437Z,30.70
2022-08-25T13:40:17.855Z,30.60
2022-08-25T13:42:50.888Z,30.19
2022-08-25T13:45:22.684Z,29.68
2022-08-25T13:47:55.718Z,29.66
2022-08-25T13:50:26.828Z,29.78
2022-08-25T13:52:55.299Z,29.97
2022-08-25T13:55:50.568Z,29.89
2022-08-25T13:58:24.599Z,30.13
2022-08-25T14:01:19.926Z,30.03
2022-08-25T14:03:53.908Z,29.74
2022-08-25T14:06:23.668Z,29.82
2022-08-25T14:08:59.342Z,29.81
2022-08-25T14:11:25.871Z,29.53
2022-08-25T14:14:00.411Z,29.75
2022-08-25T14:16:33.275Z,30.27
2022-08-25T14:19:01.871Z,30.61
2022-08-25T14:21:30.722Z,30.99
2022-08-25T14:23:57.603Z,31.06
2022-08-25T14:26:24.727Z,31.46
2022-08-25T14:28:53.394Z,31.05
2022-08-25T14:31:30.962Z,30.65
2022-08-25T14:33:59.673Z,30.44
2022-08-25T14:36:26.535Z,30.10
2022-08-25T14:38:56.406Z,30.02
2022-08-25T14:41:24.034Z,29.96
2022-08-25T14:43:51.042Z,29.84
2022-08-25T14:46:25.739Z,30.02
2022-08-25T14:48:55.464Z,30.41
2022-08-25T14:51:23.605Z,30.75
2022-08-25T14:53:52.780Z,31.00
2022-08-25T14:56:19.692Z,31.04
2022-08-25T14:58:50.957Z,30.91
2022-08-25T15:01:28.541Z,30.81
2022-08-25T15:03:58.759Z,30.76
2022-08-25T15:06:25.418Z,30.66
2022-08-25T15:09:10.689Z,30.23
2022-08-25T15:11:41.549Z,30.37
2022-08-25T15:14:10.763Z,29.98
2022-08-25T15:16:40.183Z,29.98
2022-08-25T15:19:09.915Z,29.95
2022-08-25T15:21:37.186Z,30.01
2022-08-25T15:24:05.767Z,30.08
2022-08-25T15:26:36.127Z,30.23
2022-08-25T15:29:03.871Z,30.10
2022-08-25T15:31:31.331Z,29.89
2022-08-25T15:33:59.400Z,29.65
2022-08-25T15:36:26.436Z,29.59
2022-08-25T15:38:53.496Z,29.58
2022-08-25T15:41:21.840Z,29.55
2022-08-25T15:43:53.706Z,29.56
2022-08-25T15:46:21.845Z,29.34
2022-08-25T15:48:48.366Z,29.47
2022-08-25T15:51:16.135Z,29.61
2022-08-25T15:53:42.870Z,29.66
2022-08-25T15:56:09.956Z,29.56
2022-08-25T15:58:37.035Z,29.54
2022-08-25T16:01:17.411Z,29.43
2022-08-25T16:03:46.050Z,29.61
2022-08-25T16:06:12.698Z,29.51
2022-08-25T16:08:39.690Z,29.53
2022-08-25T16:11:18.765Z,29.55
2022-08-25T16:13:45.947Z,29.37
2022-08-25T16:16:13.260Z,29.32
2022-08-25T16:18:39.922Z,29.22
2022-08-25T16:21:12.415Z,29.36
2022-08-25T16:23:40.133Z,29.50
2022-08-25T16:26:09.117Z,29.44
2022-08-25T16:28:37.326Z,29.41
2022-08-25T16:31:07.097Z,29.31
2022-08-25T16:33:35.256Z,29.20
2022-08-25T16:36:07.507Z,29.25
2022-08-25T16:38:36.015Z,29.29
2022-08-25T16:41:10.426Z,29.18
2022-08-25T16:43:37.263Z,29.05
2022-08-25T16:46:06.698Z,29.06
2022-08-25T16:48:33.483Z,29.06
2022-08-25T16:51:00.160Z,29.09
2022-08-25T16:53:46.123Z,29.07
2022-08-25T16:56:15.786Z,29.02
2022-08-25T16:58:43.022Z,29.11
2022-08-25T17:01:13.076Z,29.09
2022-08-25T17:03:44.151Z,29.08
2022-08-25T17:06:12.051Z,29.16
2022-08-25T17:08:40.690Z,29.11
2022-08-25T17:11:10.426Z,29.24
2022-08-25T17:13:38.272Z,29.24
2022-08-25T17:16:05.703Z,29.08
2022-08-25T17:18:33.044Z,29.14
2022-08-25T17:21:01.302Z,29.18
2022-08-25T17:23:30.606Z,29.17
2022-08-25T17:25:57.297Z,29.08
2022-08-25T17:28:24.905Z,29.05
2022-08-25T17:30:52.300Z,29.10
2022-08-25T17:33:21.109Z,29.04
2022-08-25T17:35:52.241Z,28.95
2022-08-25T17:38:20.980Z,28.93
2022-08-25T17:40:48.220Z,28.85
2022-08-25T17:43:15.103Z,28.81
2022-08-25T17:45:42.422Z,28.77
2022-08-25T17:48:10.156Z,28.68
2022-08-25T17:50:37.528Z,28.60
2022-08-25T17:53:05.679Z,28.58
2022-08-25T17:55:32.220Z,28.44
2022-08-25T17:57:58.770Z,28.33
2022-08-25T18:00:25.526Z,28.24
2022-08-25T18:02:52.082Z,28.09
2022-08-25T18:05:18.825Z,28.08
2022-08-25T18:07:47.483Z,28.02
2022-08-25T18:10:17.185Z,27.92
2022-08-25T18:12:44.297Z,27.84
2022-08-25T18:15:12.588Z,27.75
2022-08-25T18:17:40.884Z,27.69
2022-08-25T18:20:08.847Z,27.55
2022-08-25T18:22:36.234Z,27.54
2022-08-25T18:25:06.686Z,27.40
2022-08-25T18:27:33.876Z,27.37
2022-08-25T18:30:00.882Z,27.33
2022-08-25T18:32:27.860Z,27.30
2022-08-25T18:34:56.412Z,27.26
2022-08-25T18:37:42.516Z,27.12
2022-08-25T18:40:25.118Z,27.06
2022-08-25T18:42:57.662Z,26.98
2022-08-25T18:45:26.147Z,26.94
2022-08-25T18:47:56.302Z,26.85
2022-08-25T18:50:24.333Z,26.80
2022-08-25T18:52:51.092Z,26.74
2022-08-25T18:55:22.088Z,26.72
2022-08-25T18:57:48.688Z,26.69
2022-08-25T19:00:19.049Z,26.63
2022-08-25T19:02:49.687Z,26.58
2022-08-25T19:05:16.736Z,26.55
2022-08-25T19:07:43.988Z,26.50
2022-08-25T19:10:13.001Z,26.47
2022-08-25T19:12:41.105Z,26.44
2022-08-25T19:15:08.982Z,26.36
2022-08-25T19:17:37.487Z,26.30
2022-08-25T19:20:05.377Z,26.26
2022-08-25T19:22:41.913Z,26.24
2022-08-25T19:25:09.838Z,26.23
2022-08-25T19:27:36.375Z,26.12
2022-08-25T19:30:05.355Z,26.14
2022-08-25T19:32:32.643Z,26.12
2022-08-25T19:34:59.115Z,26.10
2022-08-25T19:37:26.932Z,26.03
2022-08-25T19:39:54.865Z,25.99
2022-08-25T19:42:34.934Z,25.93
2022-08-25T19:45:07.000Z,25.90
2022-08-25T19:47:33.441Z,25.91
2022-08-25T19:49:59.999Z,25.85
2022-08-25T19:52:26.882Z,25.68
2022-08-25T19:54:55.219Z,25.61
2022-08-25T19:57:28.310Z,25.59
2022-08-25T20:00:14.483Z,25.57
2022-08-25T20:02:41.901Z,25.53
2022-08-25T20:05:08.485Z,25.46
2022-08-25T20:07:35.564Z,25.41
2022-08-25T20:10:02.756Z,25.40
2022-08-25T20:12:29.777Z,25.27
2022-08-25T20:14:57.003Z,25.24
2022-08-25T20:17:26.285Z,25.15
2022-08-25T20:19:56.186Z,25.14
2022-08-25T20:22:26.257Z,25.04
2022-08-25T20:24:56.076Z,24.98
2022-08-25T20:27:26.055Z,24.86
2022-08-25T20:29:52.952Z,24.81
2022-08-25T20:32:20.011Z,24.77
2022-08-25T20:34:46.942Z,24.73
2022-08-25T20:37:13.464Z,24.67
2022-08-25T20:39:40.852Z,24.63
2022-08-25T20:42:07.708Z,24.62
2022-08-25T20:44:41.918Z,24.57
2022-08-25T20:47:10.382Z,24.57
2022-08-25T20:49:39.229Z,24.52
2022-08-25T20:52:06.177Z,24.47
2022-08-25T20:54:33.331Z,24.44
2022-08-25T20:56:59.767Z,24.42
2022-08-25T20:59:27.122Z,24.36
2022-08-25T21:01:56.576Z,24.36
2022-08-25T21:04:24.089Z,24.29
2022-08-25T21:06:51.030Z,24.29
2022-08-25T21:09:19.862Z,24.24
2022-08-25T21:11:46.782Z,24.21
2022-08-25T21:14:14.465Z,24.19
2022-08-25T21:16:46.435Z,24.17
2022-08-25T21:19:14.865Z,24.11
2022-08-25T21:21:42.809Z,24.07
2022-08-25T21:27:31.177Z,24.05
2022-08-25T21:29:57.881Z,24.05
2022-08-25T21:32:24.703Z,23.99
2022-08-25T21:34:52.564Z,23.93
2022-08-25T21:37:20.369Z,23.91
2022-08-25T21:39:47.094Z,23.83
2022-08-25T21:42:13.897Z,23.83
2022-08-25T21:44:40.671Z,23.76
2022-08-25T21:47:07.410Z,23.68
2022-08-25T21:49:37.547Z,23.61
2022-08-25T21:52:04.612Z,23.55
2022-08-25T21:54:31.796Z,23.50
2022-08-25T21:57:00.352Z,23.42
2022-08-25T21:59:31.599Z,23.36
2022-08-25T22:01:59.605Z,23.28
2022-08-25T22:04:26.824Z,23.22
2022-08-25T22:06:54.287Z,23.17
2022-08-25T22:09:21.020Z,23.10
2022-08-25T22:11:47.880Z,23.06
2022-08-25T22:14:15.383Z,23.03
2022-08-25T22:16:42.773Z,22.99
2022-08-25T22:19:10.697Z,22.92
2022-08-25T22:21:37.484Z,22.86
2022-08-25T22:24:05.657Z,22.79
2022-08-25T22:26:32.937Z,22.71
2022-08-25T22:29:00.843Z,22.66
2022-08-25T22:31:28.130Z,22.60
2022-08-25T22:33:55.852Z,22.47
2022-08-25T22:36:35.218Z,22.44
2022-08-25T22:39:02.591Z,22.37
2022-08-25T22:41:30.233Z,22.31
2022-08-25T22:43:57.683Z,22.24
2022-08-25T22:46:25.480Z,22.19
2022-08-25T22:48:54.877Z,22.15
2022-08-25T22:51:23.481Z,22.09
2022-08-25T22:53:50.900Z,22.01
2022-08-25T22:56:19.047Z,21.98
2022-08-25T22:58:51.754Z,21.94
2022-08-25T23:01:19.632Z,21.87
2022-08-25T23:03:47.578Z,21.82
2022-08-25T23:06:19.758Z,21.78
2022-08-25T23:08:49.693Z,21.74
2022-08-25T23:11:17.150Z,21.69
2022-08-25T23:13:44.685Z,21.67
2022-08-25T23:16:11.762Z,21.61
2022-08-25T23:18:43.482Z,21.58
2022-08-25T23:21:30.155Z,21.54
2022-08-25T23:24:02.151Z,21.50
2022-08-25T23:26:29.231Z,21.46
2022-08-25T23:28:56.005Z,21.41
2022-08-25T23:31:22.698Z,21.36
2022-08-25T23:33:51.121Z,21.32
2022-08-25T23:36:18.044Z,21.29
2022-08-25T23:38:45.667Z,21.25
2022-08-25T23:41:19.823Z,21.23
2022-08-25T23:43:48.907Z,21.20
2022-08-25T23:46:16.943Z,21.13
2022-08-25T23:48:43.693Z,21.10
2022-08-25T23:51:10.344Z,21.05
2022-08-25T23:53:37.090Z,21.02
2022-08-25T23:56:05.681Z,20.98
2022-08-25T23:58:32.464Z,20.96
